sensor_id;sensor_type;location;lat;lon;timestamp;P1;durP1;ratioP1;P2;durP2;ratioP2
15673;SDS011;7937;48.090;16.212;2022-10-22T00:00:28;4.43;;;3.97;;
15673;SDS011;7937;48.090;16.212;2022-10-22T00:03:30;5.47;;;4.97;;
15673;SDS011;7937;48.090;16.212;2022-10-22T00:06:32;8.73;;;4.93;;
15673;SDS011;7937;48.090;16.212;2022-10-22T00:09:34;6.33;;;4.60;;
15673;SDS011;7937;48.090;16.212;2022-10-22T00:12:36;9.00;;;4.90;;
15673;SDS011;7937;48.090;16.212;2022-10-22T00:15:38;9.13;;;5.60;;
15673;SDS011;7937;48.090;16.212;2022-10-22T00:18:40;8.57;;;5.20;;
15673;SDS011;7937;48.090;16.212;2022-10-22T00:21:42;7.37;;;5.10;;
15673;SDS011;7937;48.090;16.212;2022-10-22T00:24:44;7.37;;;4.70;;
15673;SDS011;7937;48.090;16.212;2022-10-22T00:27:47;6.77;;;5.20;;
15673;SDS011;7937;48.090;16.212;2022-10-22T00:30:56;9.80;;;5.30;;
15673;SDS011;7937;48.090;16.212;2022-10-22T00:33:59;7.83;;;5.10;;
15673;SDS011;7937;48.090;16.212;2022-10-22T00:37:02;6.43;;;4.47;;
15673;SDS011;7937;48.090;16.212;2022-10-22T00:40:04;9.37;;;5.30;;
15673;SDS011;7937;48.090;16.212;2022-10-22T00:43:09;6.13;;;4.83;;
15673;SDS011;7937;48.090;16.212;2022-10-22T00:46:12;5.77;;;4.93;;
15673;SDS011;7937;48.090;16.212;2022-10-22T00:49:14;8.73;;;5.33;;
15673;SDS011;7937;48.090;16.212;2022-10-22T00:52:17;6.07;;;5.47;;
15673;SDS011;7937;48.090;16.212;2022-10-22T00:55:19;8.03;;;5.67;;
15673;SDS011;7937;48.090;16.212;2022-10-22T00:58:23;9.07;;;5.40;;
15673;SDS011;7937;48.090;16.212;2022-10-22T01:01:30;7.10;;;5.43;;
15673;SDS011;7937;48.090;16.212;2022-10-22T01:04:32;6.90;;;5.33;;
15673;SDS011;7937;48.090;16.212;2022-10-22T01:07:40;7.87;;;5.40;;
15673;SDS011;7937;48.090;16.212;2022-10-22T01:10:53;9.40;;;5.60;;
15673;SDS011;7937;48.090;16.212;2022-10-22T01:14:24;7.03;;;4.80;;
15673;SDS011;7937;48.090;16.212;2022-10-22T01:17:58;7.10;;;4.90;;
15673;SDS011;7937;48.090;16.212;2022-10-22T01:21:09;8.93;;;5.50;;
15673;SDS011;7937;48.090;16.212;2022-10-22T01:24:32;6.30;;;5.27;;
15673;SDS011;7937;48.090;16.212;2022-10-22T01:31:02;8.13;;;5.70;;
15673;SDS011;7937;48.090;16.212;2022-10-22T01:34:06;6.27;;;5.27;;
15673;SDS011;7937;48.090;16.212;2022-10-22T01:37:11;6.83;;;5.50;;
15673;SDS011;7937;48.090;16.212;2022-10-22T01:40:16;9.00;;;5.50;;
15673;SDS011;7937;48.090;16.212;2022-10-22T01:43:19;6.23;;;5.13;;
15673;SDS011;7937;48.090;16.212;2022-10-22T01:46:22;9.47;;;5.53;;
15673;SDS011;7937;48.090;16.212;2022-10-22T01:49:32;10.90;;;6.00;;
15673;SDS011;7937;48.090;16.212;2022-10-22T01:52:56;8.63;;;6.27;;
15673;SDS011;7937;48.090;16.212;2022-10-22T01:56:16;8.93;;;5.80;;
15673;SDS011;7937;48.090;16.212;2022-10-22T01:59:55;6.87;;;6.13;;
15673;SDS011;7937;48.090;16.212;2022-10-22T02:03:06;11.13;;;6.40;;
15673;SDS011;7937;48.090;16.212;2022-10-22T02:06:20;6.97;;;5.30;;
15673;SDS011;7937;48.090;16.212;2022-10-22T02:09:25;10.03;;;5.73;;
15673;SDS011;7937;48.090;16.212;2022-10-22T02:12:29;7.87;;;6.20;;
15673;SDS011;7937;48.090;16.212;2022-10-22T02:15:34;7.60;;;6.77;;
15673;SDS011;7937;48.090;16.212;2022-10-22T02:18:39;7.63;;;6.40;;
15673;SDS011;7937;48.090;16.212;2022-10-22T02:21:44;9.27;;;6.03;;
15673;SDS011;7937;48.090;16.212;2022-10-22T02:24:47;8.00;;;6.17;;
15673;SDS011;7937;48.090;16.212;2022-10-22T02:31:30;8.23;;;6.90;;
15673;SDS011;7937;48.090;16.212;2022-10-22T02:34:34;9.20;;;7.40;;
15673;SDS011;7937;48.090;16.212;2022-10-22T02:37:36;9.33;;;7.57;;
15673;SDS011;7937;48.090;16.212;2022-10-22T02:40:40;11.77;;;7.17;;
15673;SDS011;7937;48.090;16.212;2022-10-22T02:43:52;11.40;;;7.07;;
15673;SDS011;7937;48.090;16.212;2022-10-22T02:46:56;10.73;;;7.53;;
15673;SDS011;7937;48.090;16.212;2022-10-22T02:49:59;9.83;;;7.47;;
15673;SDS011;7937;48.090;16.212;2022-10-22T02:53:03;8.83;;;7.27;;
15673;SDS011;7937;48.090;16.212;2022-10-22T02:56:05;9.57;;;7.60;;
15673;SDS011;7937;48.090;16.212;2022-10-22T02:59:07;10.93;;;8.67;;
15673;SDS011;7937;48.090;16.212;2022-10-22T03:02:09;9.10;;;7.80;;
15673;SDS011;7937;48.090;16.212;2022-10-22T03:05:11;10.97;;;7.60;;
15673;SDS011;7937;48.090;16.212;2022-10-22T03:08:14;11.70;;;8.43;;
15673;SDS011;7937;48.090;16.212;2022-10-22T03:11:16;10.70;;;7.57;;
15673;SDS011;7937;48.090;16.212;2022-10-22T03:14:18;10.13;;;7.93;;
15673;SDS011;7937;48.090;16.212;2022-10-22T03:17:20;9.23;;;7.63;;
15673;SDS011;7937;48.090;16.212;2022-10-22T03:20:22;9.70;;;8.17;;
15673;SDS011;7937;48.090;16.212;2022-10-22T03:23:24;9.83;;;7.67;;
15673;SDS011;7937;48.090;16.212;2022-10-22T03:26:26;10.20;;;8.10;;
15673;SDS011;7937;48.090;16.212;2022-10-22T03:29:29;12.83;;;8.43;;
15673;SDS011;7937;48.090;16.212;2022-10-22T03:32:32;10.00;;;8.40;;
15673;SDS011;7937;48.090;16.212;2022-10-22T03:35:35;10.33;;;8.60;;
15673;SDS011;7937;48.090;16.212;2022-10-22T03:38:43;8.23;;;7.07;;
15673;SDS011;7937;48.090;16.212;2022-10-22T03:41:46;10.03;;;8.27;;
15673;SDS011;7937;48.090;16.212;2022-10-22T03:44:50;9.43;;;7.47;;
15673;SDS011;7937;48.090;16.212;2022-10-22T03:47:52;12.33;;;8.90;;
15673;SDS011;7937;48.090;16.212;2022-10-22T03:50:54;10.03;;;8.70;;
15673;SDS011;7937;48.090;16.212;2022-10-22T03:53:56;13.57;;;8.57;;
15673;SDS011;7937;48.090;16.212;2022-10-22T03:56:58;9.50;;;8.50;;
15673;SDS011;7937;48.090;16.212;2022-10-22T04:00:00;12.13;;;9.30;;
15673;SDS011;7937;48.090;16.212;2022-10-22T04:03:05;11.87;;;8.07;;
15673;SDS011;7937;48.090;16.212;2022-10-22T04:06:08;9.90;;;8.33;;
15673;SDS011;7937;48.090;16.212;2022-10-22T04:09:12;14.93;;;9.80;;
15673;SDS011;7937;48.090;16.212;2022-10-22T04:12:14;9.57;;;8.00;;
15673;SDS011;7937;48.090;16.212;2022-10-22T04:15:16;11.93;;;9.17;;
15673;SDS011;7937;48.090;16.212;2022-10-22T04:18:19;9.30;;;8.27;;
15673;SDS011;7937;48.090;16.212;2022-10-22T04:21:21;14.17;;;9.57;;
15673;SDS011;7937;48.090;16.212;2022-10-22T04:24:23;15.07;;;10.37;;
15673;SDS011;7937;48.090;16.212;2022-10-22T04:27:32;15.23;;;11.07;;
15673;SDS011;7937;48.090;16.212;2022-10-22T04:30:35;12.30;;;10.10;;
15673;SDS011;7937;48.090;16.212;2022-10-22T04:33:37;13.73;;;9.73;;
15673;SDS011;7937;48.090;16.212;2022-10-22T04:36:40;10.53;;;9.40;;
15673;SDS011;7937;48.090;16.212;2022-10-22T04:39:42;14.47;;;8.87;;
15673;SDS011;7937;48.090;16.212;2022-10-22T04:42:44;13.70;;;9.93;;
15673;SDS011;7937;48.090;16.212;2022-10-22T04:45:46;13.47;;;9.73;;
15673;SDS011;7937;48.090;16.212;2022-10-22T04:48:49;11.13;;;9.47;;
15673;SDS011;7937;48.090;16.212;2022-10-22T04:51:51;13.80;;;10.00;;
15673;SDS011;7937;48.090;16.212;2022-10-22T04:54:53;16.23;;;11.33;;
15673;SDS011;7937;48.090;16.212;2022-10-22T04:57:55;12.80;;;9.50;;
15673;SDS011;7937;48.090;16.212;2022-10-22T05:00:57;15.60;;;10.40;;
15673;SDS011;7937;48.090;16.212;2022-10-22T05:04:00;13.33;;;10.60;;
15673;SDS011;7937;48.090;16.212;2022-10-22T05:07:03;13.07;;;10.10;;
15673;SDS011;7937;48.090;16.212;2022-10-22T05:10:05;12.37;;;9.60;;
15673;SDS011;7937;48.090;16.212;2022-10-22T05:13:08;12.00;;;9.57;;
15673;SDS011;7937;48.090;16.212;2022-10-22T05:16:11;13.73;;;10.10;;
15673;SDS011;7937;48.090;16.212;2022-10-22T05:19:16;12.70;;;10.47;;
15673;SDS011;7937;48.090;16.212;2022-10-22T05:22:20;15.77;;;11.83;;
15673;SDS011;7937;48.090;16.212;2022-10-22T05:25:22;16.03;;;10.90;;
15673;SDS011;7937;48.090;16.212;2022-10-22T05:28:24;10.93;;;9.80;;
15673;SDS011;7937;48.090;16.212;2022-10-22T05:31:27;13.37;;;10.57;;
15673;SDS011;7937;48.090;16.212;2022-10-22T05:34:29;11.27;;;9.73;;
15673;SDS011;7937;48.090;16.212;2022-10-22T05:37:31;15.27;;;10.30;;
15673;SDS011;7937;48.090;16.212;2022-10-22T05:40:33;15.60;;;10.07;;
15673;SDS011;7937;48.090;16.212;2022-10-22T05:43:35;14.67;;;10.00;;
15673;SDS011;7937;48.090;16.212;2022-10-22T05:46:38;10.93;;;9.23;;
15673;SDS011;7937;48.090;16.212;2022-10-22T05:49:41;12.43;;;9.17;;
15673;SDS011;7937;48.090;16.212;2022-10-22T05:52:43;13.63;;;9.53;;
15673;SDS011;7937;48.090;16.212;2022-10-22T05:55:45;12.03;;;10.07;;
15673;SDS011;7937;48.090;16.212;2022-10-22T05:58:47;12.10;;;9.33;;
15673;SDS011;7937;48.090;16.212;2022-10-22T06:01:49;10.87;;;9.57;;
15673;SDS011;7937;48.090;16.212;2022-10-22T06:04:52;10.83;;;9.73;;
15673;SDS011;7937;48.090;16.212;2022-10-22T06:07:54;11.77;;;8.83;;
15673;SDS011;7937;48.090;16.212;2022-10-22T06:10:57;12.93;;;9.37;;
15673;SDS011;7937;48.090;16.212;2022-10-22T06:14:00;12.83;;;9.53;;
15673;SDS011;7937;48.090;16.212;2022-10-22T06:17:02;10.63;;;8.90;;
15673;SDS011;7937;48.090;16.212;2022-10-22T06:20:04;13.57;;;9.13;;
15673;SDS011;7937;48.090;16.212;2022-10-22T06:23:06;11.97;;;8.90;;
15673;SDS011;7937;48.090;16.212;2022-10-22T06:26:09;11.53;;;8.80;;
15673;SDS011;7937;48.090;16.212;2022-10-22T06:29:11;11.13;;;8.47;;
15673;SDS011;7937;48.090;16.212;2022-10-22T06:32:13;12.33;;;9.47;;
15673;SDS011;7937;48.090;16.212;2022-10-22T06:35:15;12.93;;;8.47;;
15673;SDS011;7937;48.090;16.212;2022-10-22T06:38:18;8.97;;;6.87;;
15673;SDS011;7937;48.090;16.212;2022-10-22T06:41:20;8.70;;;7.40;;
15673;SDS011;7937;48.090;16.212;2022-10-22T06:44:27;9.63;;;8.00;;
15673;SDS011;7937;48.090;16.212;2022-10-22T06:47:29;8.00;;;7.20;;
15673;SDS011;7937;48.090;16.212;2022-10-22T06:50:33;10.23;;;7.40;;
15673;SDS011;7937;48.090;16.212;2022-10-22T06:53:36;13.73;;;8.33;;
15673;SDS011;7937;48.090;16.212;2022-10-22T06:56:39;8.27;;;7.33;;
15673;SDS011;7937;48.090;16.212;2022-10-22T06:59:41;8.10;;;7.17;;
15673;SDS011;7937;48.090;16.212;2022-10-22T07:02:43;10.17;;;7.30;;
15673;SDS011;7937;48.090;16.212;2022-10-22T07:06:00;10.83;;;7.10;;
15673;SDS011;7937;48.090;16.212;2022-10-22T07:09:03;8.40;;;6.70;;
15673;SDS011;7937;48.090;16.212;2022-10-22T07:12:05;12.90;;;7.73;;
15673;SDS011;7937;48.090;16.212;2022-10-22T07:15:07;11.67;;;7.50;;
15673;SDS011;7937;48.090;16.212;2022-10-22T07:18:10;9.43;;;6.57;;
15673;SDS011;7937;48.090;16.212;2022-10-22T07:21:12;6.27;;;5.67;;
15673;SDS011;7937;48.090;16.212;2022-10-22T07:24:15;9.20;;;6.20;;
15673;SDS011;7937;48.090;16.212;2022-10-22T07:27:18;11.13;;;6.30;;
15673;SDS011;7937;48.090;16.212;2022-10-22T07:30:20;6.57;;;5.40;;
15673;SDS011;7937;48.090;16.212;2022-10-22T07:33:22;6.87;;;5.67;;
15673;SDS011;7937;48.090;16.212;2022-10-22T07:36:24;8.60;;;5.90;;
15673;SDS011;7937;48.090;16.212;2022-10-22T07:39:26;7.23;;;6.13;;
15673;SDS011;7937;48.090;16.212;2022-10-22T07:42:29;9.80;;;8.60;;
15673;SDS011;7937;48.090;16.212;2022-10-22T07:45:31;13.80;;;10.53;;
15673;SDS011;7937;48.090;16.212;2022-10-22T07:48:34;14.83;;;10.40;;
15673;SDS011;7937;48.090;16.212;2022-10-22T07:51:38;15.67;;;10.17;;
15673;SDS011;7937;48.090;16.212;2022-10-22T07:54:40;15.13;;;9.60;;
15673;SDS011;7937;48.090;16.212;2022-10-22T07:57:42;14.10;;;9.70;;
15673;SDS011;7937;48.090;16.212;2022-10-22T08:00:44;12.27;;;9.17;;
15673;SDS011;7937;48.090;16.212;2022-10-22T08:03:46;11.37;;;8.90;;
15673;SDS011;7937;48.090;16.212;2022-10-22T08:06:49;11.57;;;8.67;;
15673;SDS011;7937;48.090;16.212;2022-10-22T08:09:51;14.23;;;9.20;;
15673;SDS011;7937;48.090;16.212;2022-10-22T08:12:53;10.33;;;8.27;;
15673;SDS011;7937;48.090;16.212;2022-10-22T08:15:59;11.53;;;7.50;;
15673;SDS011;7937;48.090;16.212;2022-10-22T08:19:01;9.07;;;7.17;;
15673;SDS011;7937;48.090;16.212;2022-10-22T08:22:03;10.70;;;7.07;;
15673;SDS011;7937;48.090;16.212;2022-10-22T08:25:06;12.97;;;7.53;;
15673;SDS011;7937;48.090;16.212;2022-10-22T08:28:08;13.50;;;7.00;;
15673;SDS011;7937;48.090;16.212;2022-10-22T08:31:10;9.70;;;7.67;;
15673;SDS011;7937;48.090;16.212;2022-10-22T08:34:13;8.47;;;6.03;;
15673;SDS011;7937;48.090;16.212;2022-10-22T08:37:15;9.17;;;6.93;;
15673;SDS011;7937;48.090;16.212;2022-10-22T08:40:27;10.27;;;7.23;;
15673;SDS011;7937;48.090;16.212;2022-10-22T08:43:41;9.50;;;7.90;;
15673;SDS011;7937;48.090;16.212;2022-10-22T08:47:09;11.80;;;8.67;;
15673;SDS011;7937;48.090;16.212;2022-10-22T08:50:25;11.10;;;8.37;;
15673;SDS011;7937;48.090;16.212;2022-10-22T09:03:35;12.57;;;8.73;;
15673;SDS011;7937;48.090;16.212;2022-10-22T09:06:44;11.90;;;8.53;;
15673;SDS011;7937;48.090;16.212;2022-10-22T09:09:52;12.90;;;9.23;;
15673;SDS011;7937;48.090;16.212;2022-10-22T09:12:56;12.47;;;9.43;;
15673;SDS011;7937;48.090;16.212;2022-10-22T09:16:00;12.67;;;9.33;;
15673;SDS011;7937;48.090;16.212;2022-10-22T09:26:14;8.93;;;7.23;;
15673;SDS011;7937;48.090;16.212;2022-10-22T09:29:18;12.57;;;7.70;;
15673;SDS011;7937;48.090;16.212;2022-10-22T09:32:25;9.27;;;6.70;;
15673;SDS011;7937;48.090;16.212;2022-10-22T09:35:28;7.80;;;6.70;;
15673;SDS011;7937;48.090;16.212;2022-10-22T09:38:45;9.40;;;5.80;;
15673;SDS011;7937;48.090;16.212;2022-10-22T09:41:50;10.37;;;6.47;;
15673;SDS011;7937;48.090;16.212;2022-10-22T09:44:53;7.47;;;5.57;;
15673;SDS011;7937;48.090;16.212;2022-10-22T09:54:56;6.17;;;4.60;;
15673;SDS011;7937;48.090;16.212;2022-10-22T09:58:02;5.37;;;4.47;;
15673;SDS011;7937;48.090;16.212;2022-10-22T10:01:04;6.10;;;4.23;;
15673;SDS011;7937;48.090;16.212;2022-10-22T10:04:07;4.30;;;3.90;;
15673;SDS011;7937;48.090;16.212;2022-10-22T10:07:15;5.43;;;3.77;;
15673;SDS011;7937;48.090;16.212;2022-10-22T10:10:32;5.80;;;3.30;;
15673;SDS011;7937;48.090;16.212;2022-10-22T10:16:54;2.97;;;2.73;;
15673;SDS011;7937;48.090;16.212;2022-10-22T10:20:18;3.13;;;2.83;;
15673;SDS011;7937;48.090;16.212;2022-10-22T10:23:51;4.53;;;2.70;;
15673;SDS011;7937;48.090;16.212;2022-10-22T10:27:02;3.83;;;2.57;;
15673;SDS011;7937;48.090;16.212;2022-10-22T10:30:18;3.83;;;2.13;;
15673;SDS011;7937;48.090;16.212;2022-10-22T10:36:38;2.17;;;2.00;;
15673;SDS011;7937;48.090;16.212;2022-10-22T10:50:33;2.73;;;1.40;;
15673;SDS011;7937;48.090;16.212;2022-10-22T11:00:55;1.63;;;1.00;;
15673;SDS011;7937;48.090;16.212;2022-10-22T11:04:37;1.53;;;1.20;;
15673;SDS011;7937;48.090;16.212;2022-10-22T11:07:55;1.83;;;1.00;;
15673;SDS011;7937;48.090;16.212;2022-10-22T11:14:22;3.60;;;0.90;;
15673;SDS011;7937;48.090;16.212;2022-10-22T11:17:39;0.70;;;0.67;;
15673;SDS011;7937;48.090;16.212;2022-10-22T11:20:47;1.10;;;0.80;;
15673;SDS011;7937;48.090;16.212;2022-10-22T11:27:24;0.73;;;0.57;;
15673;SDS011;7937;48.090;16.212;2022-10-22T11:30:31;0.63;;;0.50;;
15673;SDS011;7937;48.090;16.212;2022-10-22T11:33:40;3.80;;;0.80;;
15673;SDS011;7937;48.090;16.212;2022-10-22T11:37:10;2.47;;;0.80;;
15673;SDS011;7937;48.090;16.212;2022-10-22T11:40:15;1.23;;;0.50;;
15673;SDS011;7937;48.090;16.212;2022-10-22T11:46:37;0.50;;;0.50;;
15673;SDS011;7937;48.090;16.212;2022-10-22T11:49:45;0.53;;;0.43;;
15673;SDS011;7937;48.090;16.212;2022-10-22T11:53:03;0.83;;;0.60;;
15673;SDS011;7937;48.090;16.212;2022-10-22T11:59:29;0.90;;;0.80;;
15673;SDS011;7937;48.090;16.212;2022-10-22T12:05:44;0.70;;;0.70;;
15673;SDS011;7937;48.090;16.212;2022-10-22T12:12:00;0.70;;;0.70;;
15673;SDS011;7937;48.090;16.212;2022-10-22T12:15:19;3.57;;;0.97;;
15673;SDS011;7937;48.090;16.212;2022-10-22T12:18:33;1.60;;;0.90;;
15673;SDS011;7937;48.090;16.212;2022-10-22T12:21:43;2.00;;;0.67;;
15673;SDS011;7937;48.090;16.212;2022-10-22T12:24:53;1.70;;;1.03;;
15673;SDS011;7937;48.090;16.212;2022-10-22T12:27:58;2.53;;;0.90;;
15673;SDS011;7937;48.090;16.212;2022-10-22T12:31:01;0.77;;;0.73;;
15673;SDS011;7937;48.090;16.212;2022-10-22T12:34:04;8.63;;;1.23;;
15673;SDS011;7937;48.090;16.212;2022-10-22T12:37:06;2.83;;;1.20;;
15673;SDS011;7937;48.090;16.212;2022-10-22T12:40:18;1.53;;;0.97;;
15673;SDS011;7937;48.090;16.212;2022-10-22T12:43:26;2.67;;;0.87;;
15673;SDS011;7937;48.090;16.212;2022-10-22T12:46:31;0.93;;;0.83;;
15673;SDS011;7937;48.090;16.212;2022-10-22T12:49:36;1.77;;;1.00;;
15673;SDS011;7937;48.090;16.212;2022-10-22T12:52:41;1.83;;;0.80;;
15673;SDS011;7937;48.090;16.212;2022-10-22T12:55:48;0.87;;;0.80;;
15673;SDS011;7937;48.090;16.212;2022-10-22T12:58:54;3.53;;;1.10;;
15673;SDS011;7937;48.090;16.212;2022-10-22T13:02:24;0.83;;;0.70;;
15673;SDS011;7937;48.090;16.212;2022-10-22T13:05:26;1.43;;;0.70;;
15673;SDS011;7937;48.090;16.212;2022-10-22T13:08:34;1.00;;;0.77;;
15673;SDS011;7937;48.090;16.212;2022-10-22T13:11:40;2.63;;;0.70;;
15673;SDS011;7937;48.090;16.212;2022-10-22T13:14:50;1.23;;;0.60;;
15673;SDS011;7937;48.090;16.212;2022-10-22T13:21:31;1.43;;;1.00;;
15673;SDS011;7937;48.090;16.212;2022-10-22T13:24:35;1.90;;;0.70;;
15673;SDS011;7937;48.090;16.212;2022-10-22T13:34:21;0.70;;;0.60;;
15673;SDS011;7937;48.090;16.212;2022-10-22T13:37:25;1.13;;;0.63;;
15673;SDS011;7937;48.090;16.212;2022-10-22T13:40:29;1.43;;;0.77;;
15673;SDS011;7937;48.090;16.212;2022-10-22T13:43:31;0.70;;;0.60;;
15673;SDS011;7937;48.090;16.212;2022-10-22T13:46:33;1.00;;;0.50;;
15673;SDS011;7937;48.090;16.212;2022-10-22T13:49:42;1.00;;;0.57;;
15673;SDS011;7937;48.090;16.212;2022-10-22T13:52:51;0.60;;;0.60;;
15673;SDS011;7937;48.090;16.212;2022-10-22T13:55:55;1.43;;;0.70;;
15673;SDS011;7937;48.090;16.212;2022-10-22T13:58:57;1.03;;;0.60;;
15673;SDS011;7937;48.090;16.212;2022-10-22T14:02:00;1.13;;;0.80;;
15673;SDS011;7937;48.090;16.212;2022-10-22T14:05:06;0.50;;;0.40;;
15673;SDS011;7937;48.090;16.212;2022-10-22T14:08:10;0.57;;;0.57;;
15673;SDS011;7937;48.090;16.212;2022-10-22T14:11:15;0.70;;;0.40;;
15673;SDS011;7937;48.090;16.212;2022-10-22T14:14:17;0.77;;;0.50;;
15673;SDS011;7937;48.090;16.212;2022-10-22T14:17:19;0.30;;;0.30;;
15673;SDS011;7937;48.090;16.212;2022-10-22T14:20:22;0.40;;;0.40;;
15673;SDS011;7937;48.090;16.212;2022-10-22T14:23:27;1.80;;;0.40;;
15673;SDS011;7937;48.090;16.212;2022-10-22T14:26:31;0.87;;;0.50;;
15673;SDS011;7937;48.090;16.212;2022-10-22T14:29:34;0.50;;;0.50;;
15673;SDS011;7937;48.090;16.212;2022-10-22T14:32:36;1.13;;;0.50;;
15673;SDS011;7937;48.090;16.212;2022-10-22T14:35:38;0.83;;;0.40;;
15673;SDS011;7937;48.090;16.212;2022-10-22T14:38:45;2.43;;;0.40;;
15673;SDS011;7937;48.090;16.212;2022-10-22T14:41:49;1.20;;;0.50;;
15673;SDS011;7937;48.090;16.212;2022-10-22T14:44:51;0.43;;;0.40;;
15673;SDS011;7937;48.090;16.212;2022-10-22T14:47:53;0.30;;;0.30;;
15673;SDS011;7937;48.090;16.212;2022-10-22T14:50:56;1.23;;;0.70;;
15673;SDS011;7937;48.090;16.212;2022-10-22T14:53:58;3.53;;;0.40;;
15673;SDS011;7937;48.090;16.212;2022-10-22T14:57:03;1.43;;;0.57;;
15673;SDS011;7937;48.090;16.212;2022-10-22T15:00:06;0.43;;;0.40;;
15673;SDS011;7937;48.090;16.212;2022-10-22T15:03:10;0.53;;;0.50;;
15673;SDS011;7937;48.090;16.212;2022-10-22T15:06:12;0.40;;;0.40;;
15673;SDS011;7937;48.090;16.212;2022-10-22T15:09:18;1.80;;;0.50;;
15673;SDS011;7937;48.090;16.212;2022-10-22T15:12:20;0.43;;;0.40;;
15673;SDS011;7937;48.090;16.212;2022-10-22T15:15:22;0.60;;;0.40;;
15673;SDS011;7937;48.090;16.212;2022-10-22T15:18:28;1.33;;;0.77;;
15673;SDS011;7937;48.090;16.212;2022-10-22T15:21:30;0.93;;;0.80;;
15673;SDS011;7937;48.090;16.212;2022-10-22T15:24:32;1.90;;;0.67;;
15673;SDS011;7937;48.090;16.212;2022-10-22T15:27:34;0.63;;;0.53;;
15673;SDS011;7937;48.090;16.212;2022-10-22T15:30:36;0.50;;;0.40;;
15673;SDS011;7937;48.090;16.212;2022-10-22T15:33:41;1.83;;;0.70;;
15673;SDS011;7937;48.090;16.212;2022-10-22T15:36:44;0.60;;;0.60;;
15673;SDS011;7937;48.090;16.212;2022-10-22T15:39:46;0.83;;;0.60;;
15673;SDS011;7937;48.090;16.212;2022-10-22T15:42:48;0.57;;;0.50;;
15673;SDS011;7937;48.090;16.212;2022-10-22T15:45:51;0.40;;;0.40;;
15673;SDS011;7937;48.090;16.212;2022-10-22T15:49:14;0.40;;;0.40;;
15673;SDS011;7937;48.090;16.212;2022-10-22T15:52:16;0.50;;;0.50;;
15673;SDS011;7937;48.090;16.212;2022-10-22T15:55:18;0.77;;;0.70;;
15673;SDS011;7937;48.090;16.212;2022-10-22T15:58:21;1.80;;;0.53;;
15673;SDS011;7937;48.090;16.212;2022-10-22T16:01:23;0.77;;;0.70;;
15673;SDS011;7937;48.090;16.212;2022-10-22T16:04:26;0.60;;;0.50;;
15673;SDS011;7937;48.090;16.212;2022-10-22T16:07:30;3.63;;;0.80;;
15673;SDS011;7937;48.090;16.212;2022-10-22T16:10:32;0.80;;;0.43;;
15673;SDS011;7937;48.090;16.212;2022-10-22T16:13:34;0.40;;;0.40;;
15673;SDS011;7937;48.090;16.212;2022-10-22T16:16:40;0.40;;;0.40;;
15673;SDS011;7937;48.090;16.212;2022-10-22T16:19:44;0.50;;;0.40;;
15673;SDS011;7937;48.090;16.212;2022-10-22T16:22:48;1.00;;;0.70;;
15673;SDS011;7937;48.090;16.212;2022-10-22T16:25:51;0.90;;;0.53;;
15673;SDS011;7937;48.090;16.212;2022-10-22T16:28:53;0.93;;;0.60;;
15673;SDS011;7937;48.090;16.212;2022-10-22T16:31:56;1.97;;;0.43;;
15673;SDS011;7937;48.090;16.212;2022-10-22T16:34:58;0.67;;;0.50;;
15673;SDS011;7937;48.090;16.212;2022-10-22T16:38:01;0.60;;;0.60;;
15673;SDS011;7937;48.090;16.212;2022-10-22T16:41:07;2.47;;;0.80;;
15673;SDS011;7937;48.090;16.212;2022-10-22T16:44:35;0.70;;;0.60;;
15673;SDS011;7937;48.090;16.212;2022-10-22T16:47:38;4.40;;;1.10;;
15673;SDS011;7937;48.090;16.212;2022-10-22T16:50:41;3.00;;;2.80;;
15673;SDS011;7937;48.090;16.212;2022-10-22T16:53:44;1.13;;;1.00;;
15673;SDS011;7937;48.090;16.212;2022-10-22T16:56:47;1.43;;;0.70;;
15673;SDS011;7937;48.090;16.212;2022-10-22T16:59:50;1.80;;;0.63;;
15673;SDS011;7937;48.090;16.212;2022-10-22T17:02:52;2.93;;;0.80;;
15673;SDS011;7937;48.090;16.212;2022-10-22T17:05:57;1.73;;;1.37;;
15673;SDS011;7937;48.090;16.212;2022-10-22T17:09:01;3.07;;;2.40;;
15673;SDS011;7937;48.090;16.212;2022-10-22T17:12:05;1.37;;;1.20;;
15673;SDS011;7937;48.090;16.212;2022-10-22T17:15:09;2.87;;;2.37;;
15673;SDS011;7937;48.090;16.212;2022-10-22T17:18:12;4.13;;;1.50;;
15673;SDS011;7937;48.090;16.212;2022-10-22T17:21:15;1.67;;;1.10;;
15673;SDS011;7937;48.090;16.212;2022-10-22T17:24:19;3.80;;;2.73;;
15673;SDS011;7937;48.090;16.212;2022-10-22T17:27:22;2.20;;;2.00;;
15673;SDS011;7937;48.090;16.212;2022-10-22T17:30:26;2.27;;;1.63;;
15673;SDS011;7937;48.090;16.212;2022-10-22T17:33:29;2.03;;;1.53;;
15673;SDS011;7937;48.090;16.212;2022-10-22T17:36:33;2.83;;;2.57;;
15673;SDS011;7937;48.090;16.212;2022-10-22T17:39:36;4.97;;;3.70;;
15673;SDS011;7937;48.090;16.212;2022-10-22T17:42:39;4.33;;;2.03;;
15673;SDS011;7937;48.090;16.212;2022-10-22T17:45:42;3.33;;;1.70;;
15673;SDS011;7937;48.090;16.212;2022-10-22T17:48:55;3.37;;;1.57;;
15673;SDS011;7937;48.090;16.212;2022-10-22T17:52:03;2.67;;;1.30;;
15673;SDS011;7937;48.090;16.212;2022-10-22T17:55:06;2.43;;;2.23;;
15673;SDS011;7937;48.090;16.212;2022-10-22T17:58:09;2.90;;;1.60;;
15673;SDS011;7937;48.090;16.212;2022-10-22T18:01:16;5.00;;;4.03;;
15673;SDS011;7937;48.090;16.212;2022-10-22T18:04:24;4.70;;;1.80;;
15673;SDS011;7937;48.090;16.212;2022-10-22T18:07:27;5.83;;;4.40;;
15673;SDS011;7937;48.090;16.212;2022-10-22T18:10:33;1.63;;;1.53;;
15673;SDS011;7937;48.090;16.212;2022-10-22T18:13:40;1.70;;;1.60;;
15673;SDS011;7937;48.090;16.212;2022-10-22T18:16:43;2.13;;;1.37;;
15673;SDS011;7937;48.090;16.212;2022-10-22T18:19:47;1.60;;;1.50;;
15673;SDS011;7937;48.090;16.212;2022-10-22T18:22:52;4.10;;;2.10;;
15673;SDS011;7937;48.090;16.212;2022-10-22T18:25:56;2.40;;;1.30;;
15673;SDS011;7937;48.090;16.212;2022-10-22T18:28:59;3.33;;;1.57;;
15673;SDS011;7937;48.090;16.212;2022-10-22T18:32:03;1.83;;;1.20;;
15673;SDS011;7937;48.090;16.212;2022-10-22T18:35:13;1.53;;;0.97;;
15673;SDS011;7937;48.090;16.212;2022-10-22T18:38:19;3.80;;;3.37;;
15673;SDS011;7937;48.090;16.212;2022-10-22T18:41:30;4.30;;;2.43;;
15673;SDS011;7937;48.090;16.212;2022-10-22T18:44:34;0.90;;;0.90;;
15673;SDS011;7937;48.090;16.212;2022-10-22T18:47:40;1.50;;;1.40;;
15673;SDS011;7937;48.090;16.212;2022-10-22T18:50:44;1.50;;;1.20;;
15673;SDS011;7937;48.090;16.212;2022-10-22T18:53:50;1.93;;;0.83;;
15673;SDS011;7937;48.090;16.212;2022-10-22T18:57:14;2.20;;;1.07;;
15673;SDS011;7937;48.090;16.212;2022-10-22T19:00:17;1.93;;;1.30;;
15673;SDS011;7937;48.090;16.212;2022-10-22T19:03:20;3.23;;;1.10;;
15673;SDS011;7937;48.090;16.212;2022-10-22T19:06:26;3.53;;;2.70;;
15673;SDS011;7937;48.090;16.212;2022-10-22T19:09:37;1.83;;;1.53;;
15673;SDS011;7937;48.090;16.212;2022-10-22T19:12:41;1.90;;;1.10;;
15673;SDS011;7937;48.090;16.212;2022-10-22T19:15:43;1.13;;;1.03;;
15673;SDS011;7937;48.090;16.212;2022-10-22T19:18:45;2.83;;;1.43;;
15673;SDS011;7937;48.090;16.212;2022-10-22T19:21:48;4.70;;;1.70;;
15673;SDS011;7937;48.090;16.212;2022-10-22T19:24:51;4.43;;;2.97;;
15673;SDS011;7937;48.090;16.212;2022-10-22T19:27:54;3.30;;;1.60;;
15673;SDS011;7937;48.090;16.212;2022-10-22T19:30:56;0.70;;;0.70;;
15673;SDS011;7937;48.090;16.212;2022-10-22T19:34:00;2.77;;;1.97;;
15673;SDS011;7937;48.090;16.212;2022-10-22T19:37:03;1.70;;;1.10;;
15673;SDS011;7937;48.090;16.212;2022-10-22T19:40:06;1.80;;;1.30;;
15673;SDS011;7937;48.090;16.212;2022-10-22T19:43:10;4.40;;;2.73;;
15673;SDS011;7937;48.090;16.212;2022-10-22T19:46:16;2.30;;;1.60;;
15673;SDS011;7937;48.090;16.212;2022-10-22T19:49:19;2.53;;;1.23;;
15673;SDS011;7937;48.090;16.212;2022-10-22T19:52:23;7.67;;;4.77;;
15673;SDS011;7937;48.090;16.212;2022-10-22T19:55:26;1.70;;;1.20;;